sensor_id;sensor_type;location;lat;lon;timestamp;P1;durP1;ratioP1;P2;durP2;ratioP2
65879;SDS011;52661;51.364;6.054;2023-05-07T00:00:15;12.07;;;6.35;;
65879;SDS011;52661;51.364;6.054;2023-05-07T00:02:42;10.18;;;6.22;;
65879;SDS011;52661;51.364;6.054;2023-05-07T00:05:09;11.20;;;6.22;;
65879;SDS011;52661;51.364;6.054;2023-05-07T00:07:34;10.48;;;6.43;;
65879;SDS011;52661;51.364;6.054;2023-05-07T00:10:00;10.93;;;6.37;;
65879;SDS011;52661;51.364;6.054;2023-05-07T00:12:25;11.73;;;6.88;;
65879;SDS011;52661;51.364;6.054;2023-05-07T00:14:51;11.55;;;6.72;;
65879;SDS011;52661;51.364;6.054;2023-05-07T00:17:16;14.60;;;8.80;;
65879;SDS011;52661;51.364;6.054;2023-05-07T00:19:41;11.53;;;7.10;;
65879;SDS011;52661;51.364;6.054;2023-05-07T00:22:07;13.27;;;6.20;;
65879;SDS011;52661;51.364;6.054;2023-05-07T00:24:33;13.77;;;8.02;;
65879;SDS011;52661;51.364;6.054;2023-05-07T00:26:59;12.95;;;7.38;;
65879;SDS011;52661;51.364;6.054;2023-05-07T00:29:25;13.48;;;7.72;;
65879;SDS011;52661;51.364;6.054;2023-05-07T00:31:50;12.75;;;7.30;;
65879;SDS011;52661;51.364;6.054;2023-05-07T00:34:16;13.93;;;8.05;;
65879;SDS011;52661;51.364;6.054;2023-05-07T00:36:41;12.57;;;7.30;;
65879;SDS011;52661;51.364;6.054;2023-05-07T00:39:06;12.60;;;7.17;;
65879;SDS011;52661;51.364;6.054;2023-05-07T00:41:32;11.97;;;6.90;;
65879;SDS011;52661;51.364;6.054;2023-05-07T00:43:57;12.27;;;6.53;;
65879;SDS011;52661;51.364;6.054;2023-05-07T00:46:23;12.25;;;7.10;;
65879;SDS011;52661;51.364;6.054;2023-05-07T00:48:49;13.05;;;6.63;;
65879;SDS011;52661;51.364;6.054;2023-05-07T00:51:16;10.73;;;6.25;;
65879;SDS011;52661;51.364;6.054;2023-05-07T00:53:42;14.85;;;6.85;;
65879;SDS011;52661;51.364;6.054;2023-05-07T00:56:08;13.30;;;7.13;;
65879;SDS011;52661;51.364;6.054;2023-05-07T00:58:34;13.10;;;7.10;;
65879;SDS011;52661;51.364;6.054;2023-05-07T01:01:01;12.02;;;7.10;;
65879;SDS011;52661;51.364;6.054;2023-05-07T01:03:27;12.13;;;6.63;;
65879;SDS011;52661;51.364;6.054;2023-05-07T01:05:52;15.30;;;7.13;;
65879;SDS011;52661;51.364;6.054;2023-05-07T01:08:20;11.95;;;7.25;;
65879;SDS011;52661;51.364;6.054;2023-05-07T01:10:47;11.63;;;7.07;;
65879;SDS011;52661;51.364;6.054;2023-05-07T01:13:13;10.65;;;6.68;;
65879;SDS011;52661;51.364;6.054;2023-05-07T01:15:39;12.95;;;6.90;;
65879;SDS011;52661;51.364;6.054;2023-05-07T01:18:08;13.07;;;6.97;;
65879;SDS011;52661;51.364;6.054;2023-05-07T01:20:33;11.80;;;7.05;;
65879;SDS011;52661;51.364;6.054;2023-05-07T01:22:59;11.95;;;6.82;;
65879;SDS011;52661;51.364;6.054;2023-05-07T01:25:25;11.80;;;6.90;;
65879;SDS011;52661;51.364;6.054;2023-05-07T01:27:51;12.13;;;7.57;;
65879;SDS011;52661;51.364;6.054;2023-05-07T01:30:16;11.93;;;6.93;;
65879;SDS011;52661;51.364;6.054;2023-05-07T01:35:24;15.02;;;7.28;;
65879;SDS011;52661;51.364;6.054;2023-05-07T01:38:02;12.55;;;7.03;;
65879;SDS011;52661;51.364;6.054;2023-05-07T01:40:29;11.70;;;7.05;;
65879;SDS011;52661;51.364;6.054;2023-05-07T01:42:55;11.60;;;6.72;;
65879;SDS011;52661;51.364;6.054;2023-05-07T01:45:21;12.13;;;6.75;;
65879;SDS011;52661;51.364;6.054;2023-05-07T01:47:46;16.13;;;6.95;;
65879;SDS011;52661;51.364;6.054;2023-05-07T01:50:12;13.25;;;6.97;;
65879;SDS011;52661;51.364;6.054;2023-05-07T01:52:41;11.70;;;6.53;;
65879;SDS011;52661;51.364;6.054;2023-05-07T01:55:07;13.55;;;7.75;;
65879;SDS011;52661;51.364;6.054;2023-05-07T01:57:32;11.73;;;7.28;;
65879;SDS011;52661;51.364;6.054;2023-05-07T01:59:58;10.02;;;6.90;;
65879;SDS011;52661;51.364;6.054;2023-05-07T02:02:23;13.40;;;7.15;;
65879;SDS011;52661;51.364;6.054;2023-05-07T02:04:48;10.73;;;6.53;;
65879;SDS011;52661;51.364;6.054;2023-05-07T02:07:14;11.95;;;7.18;;
65879;SDS011;52661;51.364;6.054;2023-05-07T02:09:39;10.27;;;6.43;;
65879;SDS011;52661;51.364;6.054;2023-05-07T02:12:05;11.93;;;6.32;;
65879;SDS011;52661;51.364;6.054;2023-05-07T02:14:30;12.07;;;7.15;;
65879;SDS011;52661;51.364;6.054;2023-05-07T02:16:55;10.60;;;6.63;;
65879;SDS011;52661;51.364;6.054;2023-05-07T02:19:20;11.47;;;7.97;;
65879;SDS011;52661;51.364;6.054;2023-05-07T02:21:46;13.67;;;6.80;;
65879;SDS011;52661;51.364;6.054;2023-05-07T02:24:12;13.32;;;6.78;;
65879;SDS011;52661;51.364;6.054;2023-05-07T02:26:39;11.15;;;6.25;;
65879;SDS011;52661;51.364;6.054;2023-05-07T02:29:05;11.13;;;5.85;;
65879;SDS011;52661;51.364;6.054;2023-05-07T02:31:30;9.30;;;6.03;;
65879;SDS011;52661;51.364;6.054;2023-05-07T02:33:55;11.43;;;7.15;;
65879;SDS011;52661;51.364;6.054;2023-05-07T02:36:21;10.30;;;6.43;;
65879;SDS011;52661;51.364;6.054;2023-05-07T02:38:46;10.00;;;6.40;;
65879;SDS011;52661;51.364;6.054;2023-05-07T02:41:11;13.23;;;6.67;;
65879;SDS011;52661;51.364;6.054;2023-05-07T02:43:37;12.38;;;6.90;;
65879;SDS011;52661;51.364;6.054;2023-05-07T02:46:06;12.30;;;8.05;;
65879;SDS011;52661;51.364;6.054;2023-05-07T02:48:33;11.43;;;7.18;;
65879;SDS011;52661;51.364;6.054;2023-05-07T02:50:58;11.45;;;6.85;;
65879;SDS011;52661;51.364;6.054;2023-05-07T02:53:24;12.68;;;6.82;;
65879;SDS011;52661;51.364;6.054;2023-05-07T02:56:00;16.40;;;6.93;;
65879;SDS011;52661;51.364;6.054;2023-05-07T02:58:26;12.57;;;6.70;;
65879;SDS011;52661;51.364;6.054;2023-05-07T03:00:52;10.93;;;6.38;;
65879;SDS011;52661;51.364;6.054;2023-05-07T03:03:18;11.90;;;6.63;;
65879;SDS011;52661;51.364;6.054;2023-05-07T03:05:43;10.90;;;6.72;;
65879;SDS011;52661;51.364;6.054;2023-05-07T03:08:09;11.23;;;6.88;;
65879;SDS011;52661;51.364;6.054;2023-05-07T03:10:35;10.43;;;6.82;;
65879;SDS011;52661;51.364;6.054;2023-05-07T03:13:01;11.45;;;5.65;;
65879;SDS011;52661;51.364;6.054;2023-05-07T03:15:26;12.27;;;6.75;;
65879;SDS011;52661;51.364;6.054;2023-05-07T03:17:52;10.75;;;6.75;;
65879;SDS011;52661;51.364;6.054;2023-05-07T03:20:17;11.10;;;6.93;;
65879;SDS011;52661;51.364;6.054;2023-05-07T03:22:42;14.47;;;6.87;;
65879;SDS011;52661;51.364;6.054;2023-05-07T03:25:08;10.50;;;6.55;;
65879;SDS011;52661;51.364;6.054;2023-05-07T03:27:34;14.32;;;6.03;;
65879;SDS011;52661;51.364;6.054;2023-05-07T03:29:59;11.18;;;6.22;;
65879;SDS011;52661;51.364;6.054;2023-05-07T03:32:25;9.48;;;5.70;;
65879;SDS011;52661;51.364;6.054;2023-05-07T03:34:50;11.07;;;6.20;;
65879;SDS011;52661;51.364;6.054;2023-05-07T03:37:16;11.57;;;6.65;;
65879;SDS011;52661;51.364;6.054;2023-05-07T03:39:41;9.57;;;6.10;;
65879;SDS011;52661;51.364;6.054;2023-05-07T03:42:07;9.73;;;6.27;;
65879;SDS011;52661;51.364;6.054;2023-05-07T03:44:32;11.85;;;6.38;;
65879;SDS011;52661;51.364;6.054;2023-05-07T03:46:57;10.73;;;6.53;;
65879;SDS011;52661;51.364;6.054;2023-05-07T03:49:23;10.63;;;5.93;;
65879;SDS011;52661;51.364;6.054;2023-05-07T03:51:48;9.38;;;5.82;;
65879;SDS011;52661;51.364;6.054;2023-05-07T03:54:13;13.97;;;6.33;;
65879;SDS011;52661;51.364;6.054;2023-05-07T03:56:39;11.02;;;5.75;;
65879;SDS011;52661;51.364;6.054;2023-05-07T03:59:04;10.33;;;5.97;;
65879;SDS011;52661;51.364;6.054;2023-05-07T04:01:29;11.02;;;6.00;;
65879;SDS011;52661;51.364;6.054;2023-05-07T04:03:55;11.27;;;7.40;;
65879;SDS011;52661;51.364;6.054;2023-05-07T04:06:20;9.80;;;6.13;;
65879;SDS011;52661;51.364;6.054;2023-05-07T04:08:46;15.05;;;7.35;;
65879;SDS011;52661;51.364;6.054;2023-05-07T04:11:11;10.15;;;5.65;;
65879;SDS011;52661;51.364;6.054;2023-05-07T04:13:37;10.30;;;5.75;;
65879;SDS011;52661;51.364;6.054;2023-05-07T04:16:02;9.23;;;5.53;;
65879;SDS011;52661;51.364;6.054;2023-05-07T04:18:28;9.45;;;5.85;;
65879;SDS011;52661;51.364;6.054;2023-05-07T04:20:54;8.05;;;4.80;;
65879;SDS011;52661;51.364;6.054;2023-05-07T04:23:19;9.40;;;5.70;;
65879;SDS011;52661;51.364;6.054;2023-05-07T04:25:45;10.30;;;5.97;;
65879;SDS011;52661;51.364;6.054;2023-05-07T04:28:10;11.10;;;5.65;;
65879;SDS011;52661;51.364;6.054;2023-05-07T04:30:36;8.85;;;5.38;;
65879;SDS011;52661;51.364;6.054;2023-05-07T04:33:02;9.38;;;5.50;;
65879;SDS011;52661;51.364;6.054;2023-05-07T04:35:27;11.15;;;6.45;;
65879;SDS011;52661;51.364;6.054;2023-05-07T04:37:52;10.18;;;5.82;;
65879;SDS011;52661;51.364;6.054;2023-05-07T04:40:18;10.23;;;5.72;;
65879;SDS011;52661;51.364;6.054;2023-05-07T04:42:43;11.30;;;7.28;;
65879;SDS011;52661;51.364;6.054;2023-05-07T04:45:09;10.20;;;5.45;;
65879;SDS011;52661;51.364;6.054;2023-05-07T04:47:35;8.50;;;5.18;;
65879;SDS011;52661;51.364;6.054;2023-05-07T04:50:00;9.65;;;5.50;;
65879;SDS011;52661;51.364;6.054;2023-05-07T04:52:26;8.97;;;4.97;;
65879;SDS011;52661;51.364;6.054;2023-05-07T04:54:51;8.73;;;5.32;;
65879;SDS011;52661;51.364;6.054;2023-05-07T04:57:17;9.25;;;5.30;;
65879;SDS011;52661;51.364;6.054;2023-05-07T04:59:42;10.35;;;6.03;;
65879;SDS011;52661;51.364;6.054;2023-05-07T05:02:10;9.95;;;5.45;;
65879;SDS011;52661;51.364;6.054;2023-05-07T05:04:35;8.38;;;5.28;;
65879;SDS011;52661;51.364;6.054;2023-05-07T05:07:01;9.50;;;5.32;;
65879;SDS011;52661;51.364;6.054;2023-05-07T05:09:28;9.52;;;5.43;;
65879;SDS011;52661;51.364;6.054;2023-05-07T05:11:54;10.32;;;5.55;;
65879;SDS011;52661;51.364;6.054;2023-05-07T05:14:20;9.52;;;4.93;;
65879;SDS011;52661;51.364;6.054;2023-05-07T05:16:45;9.03;;;4.93;;
65879;SDS011;52661;51.364;6.054;2023-05-07T05:19:10;9.30;;;4.43;;
65879;SDS011;52661;51.364;6.054;2023-05-07T05:21:35;9.43;;;6.17;;
65879;SDS011;52661;51.364;6.054;2023-05-07T05:24:01;9.10;;;5.00;;
65879;SDS011;52661;51.364;6.054;2023-05-07T05:26:26;7.43;;;4.60;;
65879;SDS011;52661;51.364;6.054;2023-05-07T05:28:51;9.90;;;5.13;;
65879;SDS011;52661;51.364;6.054;2023-05-07T05:31:17;6.82;;;4.45;;
65879;SDS011;52661;51.364;6.054;2023-05-07T05:33:42;8.73;;;5.00;;
65879;SDS011;52661;51.364;6.054;2023-05-07T05:36:11;7.67;;;4.93;;
65879;SDS011;52661;51.364;6.054;2023-05-07T05:38:38;10.60;;;6.15;;
65879;SDS011;52661;51.364;6.054;2023-05-07T05:41:03;7.35;;;4.10;;
65879;SDS011;52661;51.364;6.054;2023-05-07T05:43:29;7.68;;;4.40;;
65879;SDS011;52661;51.364;6.054;2023-05-07T05:45:55;8.93;;;4.63;;
65879;SDS011;52661;51.364;6.054;2023-05-07T05:48:21;7.82;;;4.32;;
65879;SDS011;52661;51.364;6.054;2023-05-07T05:50:46;10.95;;;5.00;;
65879;SDS011;52661;51.364;6.054;2023-05-07T05:53:11;8.83;;;4.47;;
65879;SDS011;52661;51.364;6.054;2023-05-07T05:55:37;7.20;;;4.60;;
65879;SDS011;52661;51.364;6.054;2023-05-07T05:58:02;9.15;;;4.50;;
65879;SDS011;52661;51.364;6.054;2023-05-07T06:00:28;8.20;;;4.70;;
65879;SDS011;52661;51.364;6.054;2023-05-07T06:02:54;10.55;;;4.88;;
65879;SDS011;52661;51.364;6.054;2023-05-07T06:05:19;9.00;;;4.85;;
65879;SDS011;52661;51.364;6.054;2023-05-07T06:07:45;9.27;;;4.50;;
65879;SDS011;52661;51.364;6.054;2023-05-07T06:10:10;9.43;;;4.60;;
65879;SDS011;52661;51.364;6.054;2023-05-07T06:12:35;8.47;;;4.50;;
65879;SDS011;52661;51.364;6.054;2023-05-07T06:15:01;7.93;;;4.90;;
65879;SDS011;52661;51.364;6.054;2023-05-07T06:17:26;6.75;;;4.15;;
65879;SDS011;52661;51.364;6.054;2023-05-07T06:19:52;8.93;;;4.05;;
65879;SDS011;52661;51.364;6.054;2023-05-07T06:22:17;8.10;;;4.93;;
65879;SDS011;52661;51.364;6.054;2023-05-07T06:24:42;8.93;;;6.43;;
65879;SDS011;52661;51.364;6.054;2023-05-07T06:27:08;8.73;;;4.53;;
65879;SDS011;52661;51.364;6.054;2023-05-07T06:29:33;9.85;;;6.57;;
65879;SDS011;52661;51.364;6.054;2023-05-07T06:32:08;9.32;;;4.05;;
65879;SDS011;52661;51.364;6.054;2023-05-07T06:34:38;9.27;;;4.85;;
65879;SDS011;52661;51.364;6.054;2023-05-07T06:37:04;8.40;;;4.50;;
65879;SDS011;52661;51.364;6.054;2023-05-07T06:39:29;9.07;;;4.10;;
65879;SDS011;52661;51.364;6.054;2023-05-07T06:41:55;9.43;;;4.80;;
65879;SDS011;52661;51.364;6.054;2023-05-07T06:44:20;7.60;;;4.50;;
65879;SDS011;52661;51.364;6.054;2023-05-07T06:46:45;8.07;;;4.68;;
65879;SDS011;52661;51.364;6.054;2023-05-07T06:49:14;8.25;;;4.03;;
65879;SDS011;52661;51.364;6.054;2023-05-07T06:51:40;8.23;;;4.53;;
65879;SDS011;52661;51.364;6.054;2023-05-07T06:54:05;10.77;;;4.93;;
65879;SDS011;52661;51.364;6.054;2023-05-07T06:56:31;7.43;;;4.63;;
65879;SDS011;52661;51.364;6.054;2023-05-07T06:58:57;8.07;;;4.35;;
65879;SDS011;52661;51.364;6.054;2023-05-07T07:01:22;7.68;;;4.20;;
65879;SDS011;52661;51.364;6.054;2023-05-07T07:03:47;9.18;;;4.03;;
65879;SDS011;52661;51.364;6.054;2023-05-07T07:06:13;7.65;;;4.07;;
65879;SDS011;52661;51.364;6.054;2023-05-07T07:08:38;8.15;;;4.35;;
65879;SDS011;52661;51.364;6.054;2023-05-07T07:11:04;9.23;;;4.88;;
65879;SDS011;52661;51.364;6.054;2023-05-07T07:13:30;7.00;;;4.47;;
65879;SDS011;52661;51.364;6.054;2023-05-07T07:15:56;8.35;;;4.20;;
65879;SDS011;52661;51.364;6.054;2023-05-07T07:18:21;9.43;;;4.13;;
65879;SDS011;52661;51.364;6.054;2023-05-07T07:20:46;7.05;;;4.78;;
65879;SDS011;52661;51.364;6.054;2023-05-07T07:23:12;7.75;;;4.05;;
65879;SDS011;52661;51.364;6.054;2023-05-07T07:25:37;6.65;;;4.45;;
65879;SDS011;52661;51.364;6.054;2023-05-07T07:28:02;8.02;;;3.97;;
65879;SDS011;52661;51.364;6.054;2023-05-07T07:30:28;8.30;;;4.23;;
65879;SDS011;52661;51.364;6.054;2023-05-07T07:32:53;7.67;;;4.17;;
65879;SDS011;52661;51.364;6.054;2023-05-07T07:35:20;8.60;;;4.10;;
65879;SDS011;52661;51.364;6.054;2023-05-07T07:37:45;5.93;;;3.65;;
65879;SDS011;52661;51.364;6.054;2023-05-07T07:40:11;6.78;;;3.67;;
65879;SDS011;52661;51.364;6.054;2023-05-07T07:42:36;7.15;;;3.28;;
65879;SDS011;52661;51.364;6.054;2023-05-07T07:45:02;5.77;;;3.27;;
65879;SDS011;52661;51.364;6.054;2023-05-07T07:47:28;5.78;;;3.20;;
65879;SDS011;52661;51.364;6.054;2023-05-07T07:49:53;8.07;;;3.40;;
65879;SDS011;52661;51.364;6.054;2023-05-07T07:52:18;7.03;;;3.92;;
65879;SDS011;52661;51.364;6.054;2023-05-07T07:54:44;7.53;;;3.97;;
65879;SDS011;52661;51.364;6.054;2023-05-07T07:57:10;8.18;;;3.70;;
65879;SDS011;52661;51.364;6.054;2023-05-07T07:59:36;5.70;;;3.50;;
65879;SDS011;52661;51.364;6.054;2023-05-07T08:02:01;7.03;;;3.88;;
65879;SDS011;52661;51.364;6.054;2023-05-07T08:04:26;6.63;;;3.17;;
65879;SDS011;52661;51.364;6.054;2023-05-07T08:06:52;5.65;;;3.67;;
65879;SDS011;52661;51.364;6.054;2023-05-07T08:09:19;7.05;;;3.67;;
65879;SDS011;52661;51.364;6.054;2023-05-07T08:11:44;6.75;;;4.40;;
65879;SDS011;52661;51.364;6.054;2023-05-07T08:14:10;8.40;;;3.35;;
65879;SDS011;52661;51.364;6.054;2023-05-07T08:16:36;7.65;;;3.28;;
65879;SDS011;52661;51.364;6.054;2023-05-07T08:19:01;7.15;;;3.55;;
65879;SDS011;52661;51.364;6.054;2023-05-07T08:21:27;8.10;;;3.40;;
65879;SDS011;52661;51.364;6.054;2023-05-07T08:23:52;8.30;;;4.47;;
65879;SDS011;52661;51.364;6.054;2023-05-07T08:26:17;6.82;;;3.58;;
65879;SDS011;52661;51.364;6.054;2023-05-07T08:28:43;7.95;;;4.30;;
65879;SDS011;52661;51.364;6.054;2023-05-07T08:31:08;7.10;;;3.90;;
65879;SDS011;52661;51.364;6.054;2023-05-07T08:33:33;7.00;;;3.67;;
65879;SDS011;52661;51.364;6.054;2023-05-07T08:35:59;6.47;;;3.17;;
65879;SDS011;52661;51.364;6.054;2023-05-07T08:38:24;8.40;;;3.37;;
65879;SDS011;52661;51.364;6.054;2023-05-07T08:40:49;10.15;;;3.22;;
65879;SDS011;52661;51.364;6.054;2023-05-07T08:43:15;4.82;;;2.88;;
65879;SDS011;52661;51.364;6.054;2023-05-07T08:45:41;5.25;;;2.67;;
65879;SDS011;52661;51.364;6.054;2023-05-07T08:48:14;6.82;;;3.00;;
65879;SDS011;52661;51.364;6.054;2023-05-07T08:50:40;5.00;;;2.83;;
65879;SDS011;52661;51.364;6.054;2023-05-07T08:53:06;5.55;;;2.92;;
65879;SDS011;52661;51.364;6.054;2023-05-07T08:55:31;6.32;;;2.70;;
65879;SDS011;52661;51.364;6.054;2023-05-07T08:57:58;6.15;;;2.55;;
65879;SDS011;52661;51.364;6.054;2023-05-07T09:00:24;5.70;;;2.90;;
65879;SDS011;52661;51.364;6.054;2023-05-07T09:02:49;5.85;;;2.55;;
65879;SDS011;52661;51.364;6.054;2023-05-07T09:05:15;5.13;;;2.67;;
65879;SDS011;52661;51.364;6.054;2023-05-07T09:07:40;7.35;;;3.35;;
65879;SDS011;52661;51.364;6.054;2023-05-07T09:10:06;5.80;;;2.15;;
65879;SDS011;52661;51.364;6.054;2023-05-07T09:12:32;7.13;;;2.35;;
65879;SDS011;52661;51.364;6.054;2023-05-07T09:14:58;5.63;;;2.50;;
65879;SDS011;52661;51.364;6.054;2023-05-07T09:17:24;6.70;;;2.60;;
65879;SDS011;52661;51.364;6.054;2023-05-07T09:19:50;4.28;;;1.98;;
65879;SDS011;52661;51.364;6.054;2023-05-07T09:22:15;6.20;;;3.80;;
65879;SDS011;52661;51.364;6.054;2023-05-07T09:24:41;4.80;;;2.15;;
65879;SDS011;52661;51.364;6.054;2023-05-07T09:27:12;4.78;;;1.83;;
65879;SDS011;52661;51.364;6.054;2023-05-07T09:29:38;7.13;;;2.50;;
65879;SDS011;52661;51.364;6.054;2023-05-07T09:32:06;12.95;;;3.45;;
65879;SDS011;52661;51.364;6.054;2023-05-07T09:34:33;5.63;;;1.83;;
65879;SDS011;52661;51.364;6.054;2023-05-07T09:37:00;3.53;;;1.17;;
65879;SDS011;52661;51.364;6.054;2023-05-07T09:42:03;5.25;;;2.25;;
65879;SDS011;52661;51.364;6.054;2023-05-07T09:44:29;4.30;;;1.40;;
65879;SDS011;52661;51.364;6.054;2023-05-07T09:46:56;9.18;;;2.35;;
65879;SDS011;52661;51.364;6.054;2023-05-07T09:49:24;5.35;;;1.60;;
65879;SDS011;52661;51.364;6.054;2023-05-07T09:51:54;4.47;;;1.05;;
65879;SDS011;52661;51.364;6.054;2023-05-07T09:54:21;4.03;;;1.27;;
65879;SDS011;52661;51.364;6.054;2023-05-07T09:56:51;2.58;;;0.73;;
65879;SDS011;52661;51.364;6.054;2023-05-07T09:59:17;2.83;;;1.10;;
65879;SDS011;52661;51.364;6.054;2023-05-07T10:01:43;4.05;;;0.80;;
65879;SDS011;52661;51.364;6.054;2023-05-07T10:04:10;5.20;;;1.20;;
65879;SDS011;52661;51.364;6.054;2023-05-07T10:06:36;3.58;;;0.82;;
65879;SDS011;52661;51.364;6.054;2023-05-07T10:09:05;5.13;;;1.52;;
65879;SDS011;52661;51.364;6.054;2023-05-07T10:11:34;3.38;;;1.00;;
65879;SDS011;52661;51.364;6.054;2023-05-07T10:14:00;3.58;;;1.05;;
65879;SDS011;52661;51.364;6.054;2023-05-07T10:16:27;2.30;;;0.85;;
65879;SDS011;52661;51.364;6.054;2023-05-07T10:18:56;2.40;;;0.88;;
65879;SDS011;52661;51.364;6.054;2023-05-07T10:21:23;4.82;;;0.98;;
65879;SDS011;52661;51.364;6.054;2023-05-07T10:23:55;3.42;;;1.10;;
65879;SDS011;52661;51.364;6.054;2023-05-07T10:26:22;3.38;;;2.05;;
65879;SDS011;52661;51.364;6.054;2023-05-07T10:28:49;5.53;;;1.27;;
65879;SDS011;52661;51.364;6.054;2023-05-07T10:34:13;2.80;;;0.55;;
65879;SDS011;52661;51.364;6.054;2023-05-07T10:36:43;2.60;;;2.00;;
65879;SDS011;52661;51.364;6.054;2023-05-07T10:39:08;3.67;;;1.15;;
65879;SDS011;52661;51.364;6.054;2023-05-07T10:41:34;4.18;;;1.05;;
65879;SDS011;52661;51.364;6.054;2023-05-07T10:44:00;3.75;;;0.90;;
65879;SDS011;52661;51.364;6.054;2023-05-07T10:46:27;2.85;;;0.82;;
65879;SDS011;52661;51.364;6.054;2023-05-07T10:51:28;4.03;;;0.73;;
65879;SDS011;52661;51.364;6.054;2023-05-07T10:54:37;2.30;;;0.70;;
65879;SDS011;52661;51.364;6.054;2023-05-07T10:56:44;2.80;;;0.93;;
65879;SDS011;52661;51.364;6.054;2023-05-07T11:01:58;2.97;;;1.00;;
65879;SDS011;52661;51.364;6.054;2023-05-07T11:04:27;3.30;;;0.90;;
65879;SDS011;52661;51.364;6.054;2023-05-07T11:12:18;4.20;;;0.95;;
65879;SDS011;52661;51.364;6.054;2023-05-07T11:15:11;4.82;;;1.00;;
65879;SDS011;52661;51.364;6.054;2023-05-07T11:17:54;4.85;;;0.80;;
65879;SDS011;52661;51.364;6.054;2023-05-07T11:20:43;3.00;;;0.95;;
65879;SDS011;52661;51.364;6.054;2023-05-07T11:26:03;2.13;;;0.70;;
65879;SDS011;52661;51.364;6.054;2023-05-07T11:28:30;3.78;;;0.75;;
65879;SDS011;52661;51.364;6.054;2023-05-07T11:31:01;3.25;;;0.82;;
65879;SDS011;52661;51.364;6.054;2023-05-07T11:33:27;2.10;;;0.63;;
65879;SDS011;52661;51.364;6.054;2023-05-07T11:35:53;2.85;;;0.40;;
65879;SDS011;52661;51.364;6.054;2023-05-07T11:38:18;2.17;;;0.60;;
65879;SDS011;52661;51.364;6.054;2023-05-07T11:40:54;4.40;;;1.15;;
65879;SDS011;52661;51.364;6.054;2023-05-07T11:43:22;2.45;;;0.85;;
65879;SDS011;52661;51.364;6.054;2023-05-07T11:45:47;2.08;;;0.40;;
65879;SDS011;52661;51.364;6.054;2023-05-07T11:48:14;4.20;;;0.82;;
65879;SDS011;52661;51.364;6.054;2023-05-07T11:50:50;6.78;;;1.63;;
65879;SDS011;52661;51.364;6.054;2023-05-07T11:53:16;4.70;;;1.00;;
65879;SDS011;52661;51.364;6.054;2023-05-07T11:55:42;3.95;;;0.60;;
65879;SDS011;52661;51.364;6.054;2023-05-07T11:58:09;8.25;;;2.63;;
65879;SDS011;52661;51.364;6.054;2023-05-07T12:00:36;5.28;;;1.23;;
65879;SDS011;52661;51.364;6.054;2023-05-07T12:03:04;4.07;;;0.93;;
65879;SDS011;52661;51.364;6.054;2023-05-07T12:05:30;7.05;;;1.67;;
65879;SDS011;52661;51.364;6.054;2023-05-07T12:07:58;3.83;;;1.10;;
65879;SDS011;52661;51.364;6.054;2023-05-07T12:10:24;3.80;;;0.70;;
65879;SDS011;52661;51.364;6.054;2023-05-07T12:12:49;9.65;;;1.92;;
65879;SDS011;52661;51.364;6.054;2023-05-07T12:15:16;7.68;;;1.95;;
65879;SDS011;52661;51.364;6.054;2023-05-07T12:17:42;3.13;;;0.90;;
65879;SDS011;52661;51.364;6.054;2023-05-07T12:20:07;4.38;;;1.17;;
65879;SDS011;52661;51.364;6.054;2023-05-07T12:22:34;4.10;;;1.35;;
65879;SDS011;52661;51.364;6.054;2023-05-07T12:25:00;2.20;;;1.00;;
65879;SDS011;52661;51.364;6.054;2023-05-07T12:27:26;3.47;;;0.88;;
65879;SDS011;52661;51.364;6.054;2023-05-07T12:29:52;4.85;;;1.48;;
65879;SDS011;52661;51.364;6.054;2023-05-07T12:32:18;3.88;;;1.00;;
65879;SDS011;52661;51.364;6.054;2023-05-07T12:34:46;8.73;;;1.10;;
65879;SDS011;52661;51.364;6.054;2023-05-07T12:37:14;2.80;;;0.85;;
65879;SDS011;52661;51.364;6.054;2023-05-07T12:39:50;3.28;;;0.90;;
65879;SDS011;52661;51.364;6.054;2023-05-07T12:42:32;4.50;;;1.02;;
65879;SDS011;52661;51.364;6.054;2023-05-07T12:44:58;3.40;;;0.93;;
65879;SDS011;52661;51.364;6.054;2023-05-07T12:47:23;4.05;;;1.00;;
65879;SDS011;52661;51.364;6.054;2023-05-07T12:49:48;3.10;;;1.00;;
65879;SDS011;52661;51.364;6.054;2023-05-07T12:52:14;3.23;;;1.00;;
65879;SDS011;52661;51.364;6.054;2023-05-07T12:54:39;3.25;;;1.02;;
65879;SDS011;52661;51.364;6.054;2023-05-07T12:57:05;4.90;;;1.38;;
65879;SDS011;52661;51.364;6.054;2023-05-07T12:59:41;2.67;;;0.82;;
65879;SDS011;52661;51.364;6.054;2023-05-07T13:02:07;2.72;;;1.60;;
65879;SDS011;52661;51.364;6.054;2023-05-07T13:04:34;4.57;;;1.90;;
65879;SDS011;52661;51.364;6.054;2023-05-07T13:07:00;3.25;;;0.77;;
65879;SDS011;52661;51.364;6.054;2023-05-07T13:09:25;5.25;;;1.15;;
65879;SDS011;52661;51.364;6.054;2023-05-07T13:11:51;2.72;;;0.80;;
65879;SDS011;52661;51.364;6.054;2023-05-07T13:14:16;2.97;;;1.17;;
65879;SDS011;52661;51.364;6.054;2023-05-07T13:16:42;2.85;;;0.80;;
65879;SDS011;52661;51.364;6.054;2023-05-07T13:19:07;2.47;;;0.90;;
65879;SDS011;52661;51.364;6.054;2023-05-07T13:21:32;3.03;;;0.65;;
65879;SDS011;52661;51.364;6.054;2023-05-07T13:23:58;2.70;;;1.00;;
65879;SDS011;52661;51.364;6.054;2023-05-07T13:26:24;2.60;;;0.90;;
65879;SDS011;52661;51.364;6.054;2023-05-07T13:28:49;5.20;;;0.88;;
65879;SDS011;52661;51.364;6.054;2023-05-07T13:31:15;4.50;;;0.95;;
65879;SDS011;52661;51.364;6.054;2023-05-07T13:33:41;3.35;;;0.70;;
65879;SDS011;52661;51.364;6.054;2023-05-07T13:36:07;2.20;;;0.97;;
65879;SDS011;52661;51.364;6.054;2023-05-07T13:38:32;4.50;;;0.93;;
65879;SDS011;52661;51.364;6.054;2023-05-07T13:40:57;2.43;;;0.73;;
65879;SDS011;52661;51.364;6.054;2023-05-07T13:43:23;3.57;;;1.10;;
65879;SDS011;52661;51.364;6.054;2023-05-07T13:45:48;2.70;;;1.00;;
65879;SDS011;52661;51.364;6.054;2023-05-07T13:48:13;4.63;;;1.20;;
65879;SDS011;52661;51.364;6.054;2023-05-07T13:50:39;5.80;;;1.53;;
65879;SDS011;52661;51.364;6.054;2023-05-07T13:53:04;3.67;;;1.20;;
65879;SDS011;52661;51.364;6.054;2023-05-07T13:55:30;3.30;;;2.33;;
65879;SDS011;52661;51.364;6.054;2023-05-07T13:57:56;2.72;;;0.70;;
65879;SDS011;52661;51.364;6.054;2023-05-07T14:00:23;3.30;;;0.55;;
65879;SDS011;52661;51.364;6.054;2023-05-07T14:02:49;2.47;;;0.60;;
65879;SDS011;52661;51.364;6.054;2023-05-07T14:05:14;2.45;;;0.75;;
65879;SDS011;52661;51.364;6.054;2023-05-07T14:07:39;2.43;;;0.83;;
65879;SDS011;52661;51.364;6.054;2023-05-07T14:10:05;3.08;;;1.10;;
65879;SDS011;52661;51.364;6.054;2023-05-07T14:12:31;2.90;;;0.63;;
65879;SDS011;52661;51.364;6.054;2023-05-07T14:14:57;3.60;;;0.80;;
65879;SDS011;52661;51.364;6.054;2023-05-07T14:17:22;3.50;;;0.80;;
65879;SDS011;52661;51.364;6.054;2023-05-07T14:19:50;2.53;;;0.80;;
65879;SDS011;52661;51.364;6.054;2023-05-07T14:22:15;4.97;;;1.98;;
65879;SDS011;52661;51.364;6.054;2023-05-07T14:24:41;2.97;;;1.27;;
65879;SDS011;52661;51.364;6.054;2023-05-07T14:27:06;5.83;;;1.03;;
65879;SDS011;52661;51.364;6.054;2023-05-07T14:29:32;2.28;;;0.70;;
65879;SDS011;52661;51.364;6.054;2023-05-07T14:31:57;1.95;;;0.90;;
65879;SDS011;52661;51.364;6.054;2023-05-07T14:34:22;3.07;;;0.80;;
65879;SDS011;52661;51.364;6.054;2023-05-07T14:36:48;1.73;;;0.80;;
65879;SDS011;52661;51.364;6.054;2023-05-07T14:39:13;4.22;;;0.80;;
65879;SDS011;52661;51.364;6.054;2023-05-07T14:41:38;2.07;;;0.70;;
65879;SDS011;52661;51.364;6.054;2023-05-07T14:44:04;1.90;;;0.40;;
65879;SDS011;52661;51.364;6.054;2023-05-07T14:46:29;2.17;;;0.60;;
65879;SDS011;52661;51.364;6.054;2023-05-07T14:48:54;1.92;;;0.60;;
65879;SDS011;52661;51.364;6.054;2023-05-07T14:51:21;2.35;;;0.57;;
65879;SDS011;52661;51.364;6.054;2023-05-07T14:53:46;1.40;;;0.50;;
65879;SDS011;52661;51.364;6.054;2023-05-07T14:56:11;1.50;;;0.40;;
65879;SDS011;52661;51.364;6.054;2023-05-07T14:58:37;1.63;;;0.35;;